Erge — 3EPV9 — position and weather

sailwx.info

Track history (hours):
 
Tides and Currents Weather Stations Pressure Air Temp Water Temp Dewpoint Dewpoint Depression Visibility Wind Speed Wind Dir Waves Ship Positions

Erge

Last reported at 2018-Jun-21 20:51 UTC. Time now 2018-Jun-22 22:46 UTC.
Position N 39°32' W 009°50'.

Length 90 m; draft 5.5 m.

Type: Cargo ship. MMSI: 351429000.

Date/timePositionNaut miles runAvg speedWind from/ knotsBaromVisibWave heightAir tempDewpointWater temp
2018-Jun-21 20:51N 39°32' W 009°50'310.2
2018-Jun-21 20:30N 39°29' W 009°51'510.3
2018-Jun-21 20:00N 39°24' W 009°51'510.6
2018-Jun-21 19:30N 39°19' W 009°50'510.6
2018-Jun-21 19:00N 39°13' W 009°51'510.2
2018-Jun-21 18:30N 39°08' W 009°51'510.0
2018-Jun-21 17:59N 39°03' W 009°51'510.5
2018-Jun-21 17:30N 38°58' W 009°51'510.2
2018-Jun-21 17:00N 38°53' W 009°51'510.0
2018-Jun-21 16:30N 38°48' W 009°51'5 9.9
2018-Jun-21 16:00N 38°43' W 009°51'5 9.7
2018-Jun-21 15:30N 38°38' W 009°49'5 9.7
2018-Jun-21 15:00N 38°34' W 009°48'5 9.8
2018-Jun-21 14:30N 38°29' W 009°47'5 9.8
2018-Jun-21 14:00N 38°24' W 009°45'510.3
2018-Jun-21 13:30N 38°19' W 009°44'5 9.8
2018-Jun-21 13:00N 38°14' W 009°42'5 9.8
2018-Jun-21 12:30N 38°09' W 009°41'510.5
2018-Jun-21 12:00N 38°04' W 009°39'510.8
2018-Jun-21 11:30N 37°59' W 009°38'510.6
2018-Jun-21 11:00N 37°54' W 009°37'510.3
2018-Jun-21 10:30N 37°49' W 009°35'510.6
2018-Jun-21 10:00N 37°44' W 009°34'510.5
2018-Jun-21 09:30N 37°39' W 009°32'810.7
2018-Jun-21 08:46N 37°31' W 009°30'410.7
2018-Jun-21 08:22N 37°27' W 009°29'510.5
2018-Jun-21 07:54N 37°22' W 009°27'1910.8
2018-Jun-21 06:08N 37°03' W 009°22'110.9
2018-Jun-21 06:00N 37°02' W 009°22'510.5
2018-Jun-21 05:30N 36°57' W 009°20'510.4
2018-Jun-21 04:59N 36°52' W 009°17'710.5
2018-Jun-21 04:17N 36°46' W 009°11'710.0
2018-Jun-21 03:37N 36°43' W 009°03'2 9.9
2018-Jun-21 03:26N 36°43' W 009°01'1310.4
2018-Jun-21 02:12N 36°39' W 008°46'310.6
2018-Jun-21 01:55N 36°38' W 008°43'610.7
2018-Jun-21 01:24N 36°36' W 008°36'510.9
2018-Jun-21 00:54N 36°35' W 008°30'410.3
2018-Jun-21 00:30N 36°33' W 008°25'610.4
2018-Jun-20 23:57N 36°32' W 008°18'2110.7
2018-Jun-20 22:01N 36°26' W 007°53'110.9
2018-Jun-20 21:57N 36°25' W 007°52'332 7.8
2018-Jun-19 03:21N 37°14' W 001°03'410.6
2018-Jun-19 02:59N 37°17' W 000°59'610.7
2018-Jun-19 02:28N 37°20' W 000°53'510.5
2018-Jun-19 02:00N 37°24' W 000°49'510.7
2018-Jun-19 01:30N 37°27' W 000°44'510.8
2018-Jun-19 01:00N 37°31' W 000°39'510.5
2018-Jun-19 00:30N 37°34' W 000°34'510.4
2018-Jun-19 00:00N 37°38' W 000°30'510.8
2018-Jun-18 23:30N 37°43' W 000°26'510.7
2018-Jun-18 23:00N 37°48' W 000°22'510.7
2018-Jun-18 22:29N 37°52' W 000°19'510.6
2018-Jun-18 21:59N 37°57' W 000°15'510.5
2018-Jun-18 21:30N 38°01' W 000°12'510.5
2018-Jun-18 21:00N 38°05' W 000°08'510.5
2018-Jun-18 20:30N 38°10' W 000°04'610.4
2018-Jun-18 19:57N 38°15' W 000°01'610.4
2018-Jun-18 19:23N 38°19' E 000°04'410.3
2018-Jun-18 19:00N 38°23' E 000°06'27 9.9
2018-Jun-18 16:19N 38°46' E 000°22'410.3
2018-Jun-18 15:54N 38°50' E 000°20'4610.6
2018-Jun-18 11:31N 39°31' W 000°08'010.4
2018-Jun-18 11:30N 39°32' W 000°08'11 0.3
2018-Jun-17 03:29N 39°34' E 000°05'4610.9
2018-Jun-16 23:17N 39°22' E 001°03'310.8
2018-Jun-16 23:00N 39°21' E 001°07'2010.5
2018-Jun-16 21:05N 39°17' E 001°32'3710.2
2018-Jun-16 17:26N 39°08' E 002°18'810.4
2018-Jun-16 16:39N 39°06' E 002°29'210.5
2018-Jun-16 16:26N 39°05' E 002°31'510.7
2018-Jun-16 15:57N 39°04' E 002°38'510.9
2018-Jun-16 15:30N 39°03' E 002°44'810.7
2018-Jun-16 14:47N 39°01' E 002°54'510.7
2018-Jun-16 14:18N 39°00' E 003°00'310.8
2018-Jun-16 13:59N 39°00' E 003°05'  
2018-Jun-11 21:28N 37°26' E 023°40'510.6
2018-Jun-11 20:59N 37°31' E 023°41'  
Track history (hours):
 
Tides and Currents Weather Stations Pressure Air Temp Water Temp Dewpoint Dewpoint Depression Visibility Wind Speed Wind Dir Waves Ship Positions

Erge

Last reported at 2018-Jun-21 20:51 UTC. Time now 2018-Jun-22 22:46 UTC.
Position N 39°32' W 009°50'.

Length 90 m; draft 5.5 m.

Type: Cargo ship. MMSI: 351429000.

Date/timePositionNaut miles runAvg speedWind from/ knotsBaromVisibWave heightAir tempDewpointWater temp
2018-Jun-21 20:51N 39°32' W 009°50'310.2
2018-Jun-21 20:30N 39°29' W 009°51'510.3
2018-Jun-21 20:00N 39°24' W 009°51'510.6
2018-Jun-21 19:30N 39°19' W 009°50'510.6
2018-Jun-21 19:00N 39°13' W 009°51'510.2
2018-Jun-21 18:30N 39°08' W 009°51'510.0
2018-Jun-21 17:59N 39°03' W 009°51'510.5
2018-Jun-21 17:30N 38°58' W 009°51'510.2
2018-Jun-21 17:00N 38°53' W 009°51'510.0
2018-Jun-21 16:30N 38°48' W 009°51'5 9.9
2018-Jun-21 16:00N 38°43' W 009°51'5 9.7
2018-Jun-21 15:30N 38°38' W 009°49'5 9.7
2018-Jun-21 15:00N 38°34' W 009°48'5 9.8
2018-Jun-21 14:30N 38°29' W 009°47'5 9.8
2018-Jun-21 14:00N 38°24' W 009°45'510.3
2018-Jun-21 13:30N 38°19' W 009°44'5 9.8
2018-Jun-21 13:00N 38°14' W 009°42'5 9.8
2018-Jun-21 12:30N 38°09' W 009°41'510.5
2018-Jun-21 12:00N 38°04' W 009°39'510.8
2018-Jun-21 11:30N 37°59' W 009°38'510.6
2018-Jun-21 11:00N 37°54' W 009°37'510.3
2018-Jun-21 10:30N 37°49' W 009°35'510.6
2018-Jun-21 10:00N 37°44' W 009°34'510.5
2018-Jun-21 09:30N 37°39' W 009°32'810.7
2018-Jun-21 08:46N 37°31' W 009°30'410.7
2018-Jun-21 08:22N 37°27' W 009°29'510.5
2018-Jun-21 07:54N 37°22' W 009°27'1910.8
2018-Jun-21 06:08N 37°03' W 009°22'110.9
2018-Jun-21 06:00N 37°02' W 009°22'510.5
2018-Jun-21 05:30N 36°57' W 009°20'510.4
2018-Jun-21 04:59N 36°52' W 009°17'710.5
2018-Jun-21 04:17N 36°46' W 009°11'710.0
2018-Jun-21 03:37N 36°43' W 009°03'2 9.9
2018-Jun-21 03:26N 36°43' W 009°01'1310.4
2018-Jun-21 02:12N 36°39' W 008°46'310.6
2018-Jun-21 01:55N 36°38' W 008°43'610.7
2018-Jun-21 01:24N 36°36' W 008°36'510.9
2018-Jun-21 00:54N 36°35' W 008°30'410.3
2018-Jun-21 00:30N 36°33' W 008°25'610.4
2018-Jun-20 23:57N 36°32' W 008°18'2110.7
2018-Jun-20 22:01N 36°26' W 007°53'110.9
2018-Jun-20 21:57N 36°25' W 007°52'332 7.8
2018-Jun-19 03:21N 37°14' W 001°03'410.6
2018-Jun-19 02:59N 37°17' W 000°59'610.7
2018-Jun-19 02:28N 37°20' W 000°53'510.5
2018-Jun-19 02:00N 37°24' W 000°49'510.7
2018-Jun-19 01:30N 37°27' W 000°44'510.8
2018-Jun-19 01:00N 37°31' W 000°39'510.5
2018-Jun-19 00:30N 37°34' W 000°34'510.4
2018-Jun-19 00:00N 37°38' W 000°30'510.8
2018-Jun-18 23:30N 37°43' W 000°26'510.7
2018-Jun-18 23:00N 37°48' W 000°22'510.7
2018-Jun-18 22:29N 37°52' W 000°19'510.6
2018-Jun-18 21:59N 37°57' W 000°15'510.5
2018-Jun-18 21:30N 38°01' W 000°12'510.5
2018-Jun-18 21:00N 38°05' W 000°08'510.5
2018-Jun-18 20:30N 38°10' W 000°04'610.4
2018-Jun-18 19:57N 38°15' W 000°01'610.4
2018-Jun-18 19:23N 38°19' E 000°04'410.3
2018-Jun-18 19:00N 38°23' E 000°06'27 9.9
2018-Jun-18 16:19N 38°46' E 000°22'410.3
2018-Jun-18 15:54N 38°50' E 000°20'4610.6
2018-Jun-18 11:31N 39°31' W 000°08'010.4
2018-Jun-18 11:30N 39°32' W 000°08'11 0.3
2018-Jun-17 03:29N 39°34' E 000°05'4610.9
2018-Jun-16 23:17N 39°22' E 001°03'310.8
2018-Jun-16 23:00N 39°21' E 001°07'2010.5
2018-Jun-16 21:05N 39°17' E 001°32'3710.2
2018-Jun-16 17:26N 39°08' E 002°18'810.4
2018-Jun-16 16:39N 39°06' E 002°29'210.5
2018-Jun-16 16:26N 39°05' E 002°31'510.7
2018-Jun-16 15:57N 39°04' E 002°38'510.9
2018-Jun-16 15:30N 39°03' E 002°44'810.7
2018-Jun-16 14:47N 39°01' E 002°54'510.7
2018-Jun-16 14:18N 39°00' E 003°00'310.8
2018-Jun-16 13:59N 39°00' E 003°05'  
2018-Jun-11 21:28N 37°26' E 023°40'510.6
2018-Jun-11 20:59N 37°31' E 023°41'  

Dump ship's entire track history